createdAt,value
2022-10-25T00:04:50.584Z,31.70
2022-10-25T00:09:52.703Z,31.70
2022-10-25T00:14:54.832Z,31.60
2022-10-25T00:19:56.921Z,31.60
2022-10-25T00:30:02.421Z,31.40
2022-10-25T00:35:04.912Z,31.50
2022-10-25T00:40:07.694Z,31.50
2022-10-25T00:45:30.026Z,31.50
2022-10-25T00:50:34.917Z,31.30
2022-10-25T00:55:40.679Z,31.40
2022-10-25T01:00:45.139Z,31.30
2022-10-25T01:05:48.603Z,31.10
2022-10-25T01:10:51.007Z,31.10
2022-10-25T01:16:14.414Z,31.00
2022-10-25T01:21:30.654Z,31.00
2022-10-25T01:26:45.666Z,30.90
2022-10-25T01:32:18.637Z,31.00
2022-10-25T01:37:34.762Z,31.70
2022-10-25T01:42:53.516Z,31.10
2022-10-25T01:48:09.537Z,31.20
2022-10-25T01:53:12.397Z,31.10
2022-10-25T01:58:24.192Z,31.30
2022-10-25T02:03:45.679Z,31.40
2022-10-25T02:08:56.641Z,32.10
2022-10-25T02:14:20.803Z,31.40
2022-10-25T02:19:33.814Z,31.60
2022-10-25T02:24:37.649Z,31.40
2022-10-25T02:29:41.447Z,31.40
2022-10-25T02:34:47.506Z,31.40
2022-10-25T02:39:51.340Z,31.30
2022-10-25T02:44:53.427Z,31.20
2022-10-25T02:54:58.088Z,31.10
2022-10-25T03:05:03.095Z,31.10
2022-10-25T03:10:05.831Z,31.20
2022-10-25T03:15:08.073Z,31.20
2022-10-25T03:20:10.507Z,31.00
2022-10-25T03:25:12.581Z,31.50
2022-10-25T03:30:15.677Z,31.40
2022-10-25T03:35:17.820Z,31.50
2022-10-25T03:40:20.907Z,31.70
2022-10-25T03:45:23.366Z,31.80
2022-10-25T04:00:30.984Z,31.70
2022-10-25T04:05:33.290Z,31.80
2022-10-25T04:10:35.575Z,31.90
2022-10-25T04:15:38.811Z,32.00
2022-10-25T04:25:43.413Z,32.40
2022-10-25T04:30:45.471Z,32.50
2022-10-25T04:35:57.322Z,32.60
2022-10-25T04:41:01.073Z,32.50
2022-10-25T04:46:03.851Z,33.10
2022-10-25T04:51:05.874Z,32.30
2022-10-25T04:56:11.848Z,32.00
2022-10-25T05:01:16.375Z,32.30
2022-10-25T05:06:22.172Z,32.10
2022-10-25T05:11:25.341Z,32.10
2022-10-25T05:21:31.129Z,32.20
2022-10-25T05:26:34.138Z,32.70
2022-10-25T05:31:38.559Z,32.80
2022-10-25T05:36:40.709Z,32.50
2022-10-25T05:41:42.882Z,32.90
2022-10-25T05:46:45.401Z,32.90
2022-10-25T05:51:47.472Z,32.20
2022-10-25T05:56:49.575Z,31.80
2022-10-25T06:01:51.797Z,31.90
2022-10-25T06:06:54.110Z,32.20
2022-10-25T06:11:56.137Z,32.10
2022-10-25T06:16:58.267Z,32.20
2022-10-25T06:22:01.824Z,32.20
2022-10-25T06:27:04.072Z,32.20
2022-10-25T06:32:06.151Z,32.10
2022-10-25T06:37:08.214Z,32.30
2022-10-25T06:42:10.317Z,32.10
2022-10-25T06:52:20.177Z,32.10
2022-10-25T06:57:22.249Z,32.10
2022-10-25T07:02:24.430Z,32.30
2022-10-25T07:07:26.678Z,32.60
2022-10-25T07:12:29.646Z,33.60
2022-10-25T07:17:32.119Z,34.50
2022-10-25T07:22:34.389Z,35.80
2022-10-25T07:27:36.444Z,36.40
2022-10-25T07:32:41.647Z,35.70
2022-10-25T07:37:44.967Z,35.40
2022-10-25T07:42:49.705Z,35.30
2022-10-25T07:47:52.229Z,35.30
2022-10-25T07:52:57.413Z,35.30
2022-10-25T07:58:04.224Z,36.00
2022-10-25T08:03:06.774Z,35.30
2022-10-25T08:08:08.833Z,35.90
2022-10-25T08:13:11.451Z,34.40
2022-10-25T08:18:13.451Z,34.70
2022-10-25T08:23:15.982Z,35.00
2022-10-25T08:28:18.309Z,33.80
2022-10-25T08:33:20.412Z,33.50
2022-10-25T08:38:22.512Z,33.10
2022-10-25T08:43:48.929Z,31.90
2022-10-25T08:49:02.556Z,32.00
2022-10-25T08:54:31.976Z,32.10
2022-10-25T08:59:37.428Z,31.50
2022-10-25T09:04:39.564Z,31.40
2022-10-25T09:10:02.190Z,30.60
2022-10-25T09:20:25.094Z,30.60
2022-10-25T09:26:02.034Z,30.60
2022-10-25T09:31:05.321Z,30.40
2022-10-25T09:36:08.695Z,30.40
2022-10-25T09:41:22.673Z,30.30
2022-10-25T09:46:40.220Z,30.30
2022-10-25T09:51:57.536Z,30.40
2022-10-25T09:56:59.817Z,30.90
2022-10-25T10:02:02.129Z,30.80
2022-10-25T10:07:20.559Z,30.50
2022-10-25T10:12:33.558Z,30.70
2022-10-25T10:17:35.601Z,30.30
2022-10-25T10:22:52.382Z,30.10
2022-10-25T10:27:57.789Z,30.00
2022-10-25T10:33:01.481Z,30.10
2022-10-25T10:38:22.805Z,29.90
2022-10-25T10:43:34.149Z,29.80
2022-10-25T10:48:42.110Z,29.70
2022-10-25T10:53:45.390Z,29.50
2022-10-25T10:58:53.708Z,28.90
2022-10-25T11:04:01.003Z,28.30
2022-10-25T11:09:12.197Z,28.00
2022-10-25T11:14:16.403Z,28.00
2022-10-25T11:19:31.202Z,27.10
2022-10-25T11:24:46.076Z,26.80
2022-10-25T11:29:56.398Z,26.90
2022-10-25T11:35:07.252Z,26.70
2022-10-25T11:40:17.549Z,26.50
2022-10-25T11:45:42.965Z,26.10
2022-10-25T11:51:06.465Z,25.20
2022-10-25T11:56:14.663Z,25.50
2022-10-25T12:01:38.039Z,25.60
2022-10-25T12:06:58.801Z,25.60
2022-10-25T12:12:05.210Z,24.90
2022-10-25T12:17:30.015Z,24.00
2022-10-25T12:22:39.377Z,23.30
2022-10-25T12:27:44.758Z,22.80
2022-10-25T12:33:01.792Z,22.80
2022-10-25T12:38:18.559Z,22.80
2022-10-25T12:43:33.830Z,22.30
2022-10-25T12:48:53.734Z,22.40
2022-10-25T12:54:19.332Z,21.90
2022-10-25T13:00:01.433Z,21.50
2022-10-25T13:05:15.442Z,21.60
2022-10-25T13:10:22.032Z,20.60
2022-10-25T13:15:24.910Z,20.90
2022-10-25T13:20:36.149Z,20.60
2022-10-25T13:25:58.147Z,19.80
2022-10-25T13:31:28.239Z,19.30
2022-10-25T13:36:48.937Z,19.00
2022-10-25T13:41:54.598Z,19.80
2022-10-25T13:46:57.025Z,19.70
2022-10-25T13:52:04.960Z,19.90
2022-10-25T13:57:47.331Z,20.00
2022-10-25T14:03:08.165Z,20.00
2022-10-25T14:08:40.370Z,20.10
2022-10-25T14:13:48.578Z,19.30
2022-10-25T14:18:52.959Z,19.00
2022-10-25T14:23:55.763Z,18.60
2022-10-25T14:29:14.327Z,19.10
2022-10-25T14:34:22.265Z,18.60
2022-10-25T14:39:30.483Z,18.70
2022-10-25T14:44:45.347Z,18.90
2022-10-25T14:49:47.503Z,19.10
2022-10-25T14:54:55.751Z,19.60
2022-10-25T15:00:02.120Z,20.30
2022-10-25T15:05:05.723Z,20.90
2022-10-25T15:10:30.461Z,21.30
2022-10-25T15:15:36.654Z,21.10
2022-10-25T15:20:38.743Z,22.30
2022-10-25T15:25:40.888Z,21.30
2022-10-25T15:30:49.847Z,21.70
2022-10-25T15:36:00.611Z,21.70
2022-10-25T15:41:02.892Z,22.20
2022-10-25T15:51:11.696Z,21.70
2022-10-25T15:56:17.031Z,22.00
2022-10-25T16:01:19.487Z,22.20
2022-10-25T16:06:21.612Z,23.30
2022-10-25T16:11:23.951Z,23.50
2022-10-25T16:16:39.876Z,23.70
2022-10-25T16:21:43.302Z,23.70
2022-10-25T16:26:48.441Z,22.90
2022-10-25T16:31:51.714Z,23.30
2022-10-25T16:36:53.899Z,23.30
2022-10-25T16:41:58.255Z,24.30
2022-10-25T16:47:00.327Z,24.60
2022-10-25T16:57:04.993Z,23.90
2022-10-25T17:02:15.828Z,24.50
2022-10-25T17:07:18.101Z,25.30
2022-10-25T17:12:20.156Z,24.70
2022-10-25T17:22:27.237Z,24.90
2022-10-25T17:27:29.412Z,24.90
2022-10-25T17:32:31.791Z,25.10
2022-10-25T17:42:36.587Z,25.30
2022-10-25T17:47:42.349Z,25.30
2022-10-25T17:52:44.398Z,25.40
2022-10-25T17:57:47.040Z,25.50
2022-10-25T18:02:50.642Z,25.80
2022-10-25T18:12:55.542Z,25.80
2022-10-25T18:23:00.240Z,25.60
2022-10-25T18:28:02.492Z,26.80
2022-10-25T18:33:09.023Z,26.30
2022-10-25T18:43:20.387Z,26.40
2022-10-25T18:48:22.496Z,26.70
2022-10-25T18:53:24.672Z,26.70
2022-10-25T18:58:29.623Z,26.80
2022-10-25T19:03:31.724Z,26.80
2022-10-25T19:08:35.289Z,27.00
2022-10-25T19:13:37.685Z,27.10
2022-10-25T19:18:40.682Z,27.20
2022-10-25T19:23:44.544Z,27.90
2022-10-25T19:33:51.171Z,27.40
2022-10-25T19:38:53.291Z,28.10
2022-10-25T19:43:56.685Z,28.90
2022-10-25T19:49:00.207Z,27.80
2022-10-25T19:59:06.241Z,28.00
2022-10-25T20:04:08.377Z,27.90
2022-10-25T20:14:13.121Z,28.20
2022-10-25T20:19:15.347Z,28.10
2022-10-25T20:24:18.068Z,28.80
2022-10-25T20:29:21.535Z,28.40
2022-10-25T20:34:23.868Z,28.60
2022-10-25T20:39:26.036Z,28.80
2022-10-25T20:44:28.094Z,28.50
2022-10-25T20:49:30.124Z,29.00
2022-10-25T20:54:32.180Z,29.00
2022-10-25T20:59:34.242Z,28.50
2022-10-25T21:04:49.410Z,29.30
2022-10-25T21:09:55.076Z,29.40
2022-10-25T21:14:57.222Z,28.90
2022-10-25T21:19:59.325Z,28.90
2022-10-25T21:25:01.383Z,30.00
2022-10-25T21:30:04.453Z,28.90
2022-10-25T21:35:06.762Z,28.90
2022-10-25T21:40:10.019Z,28.80
2022-10-25T21:45:12.190Z,28.90
2022-10-25T21:50:15.646Z,28.80
2022-10-25T21:55:17.696Z,29.50
2022-10-25T22:00:19.844Z,28.90
2022-10-25T22:05:21.910Z,29.50
2022-10-25T22:10:24.624Z,29.70
2022-10-25T22:15:27.532Z,29.80
2022-10-25T22:20:29.549Z,30.00
2022-10-25T22:25:32.882Z,29.90
2022-10-25T22:30:34.966Z,29.50
2022-10-25T22:35:37.068Z,29.60
2022-10-25T22:40:39.157Z,29.60
2022-10-25T22:45:41.225Z,30.10
2022-10-25T22:50:51.137Z,29.70
2022-10-25T22:56:01.894Z,29.80
2022-10-25T23:01:09.832Z,30.00
2022-10-25T23:06:18.206Z,30.00
2022-10-25T23:11:30.729Z,30.20
2022-10-25T23:16:33.126Z,30.20
2022-10-25T23:21:35.206Z,31.10
2022-10-25T23:26:37.366Z,30.60
2022-10-25T23:31:39.416Z,30.60
2022-10-25T23:36:41.615Z,31.40
2022-10-25T23:46:46.304Z,30.90
2022-10-25T23:51:48.495Z,31.80
2022-10-25T23:56:50.557Z,31.20
